Time;durP1;ratioP1;P1;durP2;ratioP2;P2;SDS_P1;SDS_P2;PMS_P1;PMS_P2;Temp;Humidity;BMP_temperature;BMP_pressure;BME280_temperature;BME280_humidity;BME280_pressure;Samples;Min_cycle;Max_cycle;Signal;HPM_P1;HPM_P2
2023/04/15 00:02:17;;;;;;;7.90;5.60;;;;;;;14.98;64.69;101125.66;106819;1271;22518;-54
2023/04/15 00:04:46;;;;;;;6.30;5.00;;;;;;;14.98;64.87;101128.48;106878;1271;24252;-54
2023/04/15 00:07:16;;;;;;;8.20;5.70;;;;;;;14.97;65.00;101129.90;106662;1271;25328;-54
2023/04/15 00:09:45;;;;;;;7.80;5.30;;;;;;;14.98;65.08;101129.89;106746;1273;25367;-54
2023/04/15 00:12:15;;;;;;;8.20;6.20;;;;;;;14.96;65.12;101133.27;106707;1272;25352;-54
2023/04/15 00:14:43;;;;;;;9.70;5.70;;;;;;;14.93;65.11;101134.93;106849;1271;25454;-54
2023/04/15 00:17:12;;;;;;;7.50;6.00;;;;;;;14.92;65.22;101128.33;106804;1271;25345;-54
2023/04/15 00:19:41;;;;;;;10.60;5.70;;;;;;;14.93;65.29;101129.17;106671;1271;25344;-54
2023/04/15 00:22:12;;;;;;;10.40;6.00;;;;;;;14.95;65.18;101127.17;106691;1270;25454;-55
2023/04/15 00:24:41;;;;;;;6.80;5.40;;;;;;;14.96;65.14;101119.83;106706;1271;25413;-54
2023/04/15 00:27:10;;;;;;;10.70;6.40;;;;;;;14.94;65.17;101115.67;106666;1272;22615;-55
2023/04/15 00:29:38;;;;;;;11.10;6.80;;;;;;;14.95;65.22;101111.64;106768;1272;22645;-54
2023/04/15 00:32:08;;;;;;;8.90;6.40;;;;;;;14.94;65.26;101109.92;106053;1271;1002961;-54
2023/04/15 00:34:36;;;;;;;8.40;6.20;;;;;;;14.93;65.24;101109.09;106684;1271;25374;-55
2023/04/15 00:37:05;;;;;;;9.70;5.90;;;;;;;14.92;65.28;101109.80;107110;1271;25337;-54
2023/04/15 00:39:34;;;;;;;12.20;6.60;;;;;;;14.91;65.22;101110.89;107034;1268;25334;-55
2023/04/15 00:42:03;;;;;;;9.90;6.20;;;;;;;14.91;65.21;101103.72;106839;1271;25360;-55
2023/04/15 00:44:32;;;;;;;9.90;6.30;;;;;;;14.92;65.28;101104.06;106925;1268;25390;-54
2023/04/15 00:47:01;;;;;;;9.00;6.20;;;;;;;14.91;65.34;101102.69;106745;1271;25366;-55
2023/04/15 00:49:33;;;;;;;7.80;6.60;;;;;;;14.88;65.39;101104.54;106699;1273;23435;-55
2023/04/15 00:52:02;;;;;;;7.40;6.70;;;;;;;14.83;65.47;101104.70;106729;1273;22642;-55
2023/04/15 00:54:30;;;;;;;7.40;6.20;;;;;;;14.80;65.66;101101.48;106365;1276;26372;-55
2023/04/15 00:56:59;;;;;;;9.20;6.60;;;;;;;14.76;65.76;101102.14;106742;1273;25339;-55
2023/04/15 00:59:28;;;;;;;8.10;6.10;;;;;;;14.73;66.04;101100.16;106572;1279;22586;-54
2023/04/15 01:01:56;;;;;;;8.80;6.20;;;;;;;14.71;66.13;101100.75;106402;1274;25639;-55
2023/04/15 01:04:26;;;;;;;8.10;6.10;;;;;;;14.68;66.15;101096.98;106362;1276;22645;-55
2023/04/15 01:06:55;;;;;;;9.00;6.30;;;;;;;14.61;66.35;101092.50;106343;1277;25371;-55
2023/04/15 01:09:23;;;;;;;8.80;6.60;;;;;;;14.61;66.58;101092.85;106313;1277;23067;-55
2023/04/15 01:11:53;;;;;;;8.50;6.30;;;;;;;14.62;66.64;101095.80;106318;1277;25536;-55
2023/04/15 01:14:21;;;;;;;11.10;6.60;;;;;;;14.61;66.61;101098.60;105658;1276;1003376;-55
2023/04/15 01:16:51;;;;;;;10.00;6.40;;;;;;;14.59;66.59;101096.42;106290;1275;22550;-55
2023/04/15 01:19:20;;;;;;;9.00;6.30;;;;;;;14.59;66.74;101099.02;106303;1275;23275;-55
2023/04/15 01:21:49;;;;;;;8.40;5.70;;;;;;;14.58;66.79;101100.46;106299;1280;25305;-55
2023/04/15 01:24:18;;;;;;;7.00;6.30;;;;;;;14.56;66.89;101099.30;106490;1273;22521;-55
2023/04/15 01:26:48;;;;;;;9.30;6.70;;;;;;;14.56;67.02;101103.31;106622;1274;25364;-55
2023/04/15 01:29:17;;;;;;;12.50;6.70;;;;;;;14.56;67.09;101104.55;106432;1276;25401;-55
2023/04/15 01:31:50;;;;;;;7.50;6.50;;;;;;;14.54;67.17;101106.52;106644;1272;25470;-55
2023/04/15 01:34:20;;;;;;;11.50;7.30;;;;;;;14.54;67.24;101104.97;106628;1274;22543;-55
2023/04/15 01:36:50;;;;;;;7.90;6.60;;;;;;;14.54;67.27;101101.63;106912;1268;22518;-55
2023/04/15 01:39:19;;;;;;;9.40;7.10;;;;;;;14.55;67.27;101102.46;107100;1268;25525;-55
2023/04/15 01:41:48;;;;;;;11.00;6.70;;;;;;;14.54;67.31;101102.18;107100;1253;25416;-55
2023/04/15 01:44:16;;;;;;;10.40;7.50;;;;;;;14.53;67.33;101103.24;107004;1268;25367;-55
2023/04/15 01:46:47;;;;;;;8.20;6.90;;;;;;;14.51;67.22;101104.19;107097;1268;25342;-55
2023/04/15 01:49:15;;;;;;;11.10;6.80;;;;;;;14.48;67.28;101116.69;107020;1268;22527;-55
2023/04/15 01:51:44;;;;;;;10.90;6.60;;;;;;;14.44;67.42;101116.63;106760;1272;23255;-55
2023/04/15 01:54:13;;;;;;;8.20;6.70;;;;;;;14.42;67.53;101114.09;106742;1268;25290;-55
2023/04/15 01:56:41;;;;;;;14.90;7.10;;;;;;;14.39;67.58;101113.64;106718;1252;22863;-55
2023/04/15 01:59:11;;;;;;;9.30;7.10;;;;;;;14.37;67.47;101108.66;106754;1274;25362;-55
2023/04/15 02:01:39;;;;;;;11.20;6.70;;;;;;;14.35;67.45;101106.10;106808;1271;25409;-55
2023/04/15 02:04:15;;;;;;;11.10;6.70;;;;;;;14.34;67.53;101095.99;107055;1267;25279;-55
2023/04/15 02:06:43;;;;;;;10.90;6.80;;;;;;;14.34;67.54;101093.39;107040;1268;22517;-55
2023/04/15 02:09:13;;;;;;;14.90;6.40;;;;;;;14.34;67.31;101096.00;106736;1268;22525;-55
2023/04/15 02:11:44;;;;;;;10.90;6.70;;;;;;;14.34;67.21;101098.62;107032;1267;25422;-55
2023/04/15 02:14:13;;;;;;;9.80;6.50;;;;;;;14.34;67.13;101095.83;106908;1268;22518;-55
2023/04/15 02:16:44;;;;;;;11.10;7.30;;;;;;;14.34;67.09;101090.79;106934;1269;25333;-55
2023/04/15 02:19:16;;;;;;;7.90;6.60;;;;;;;14.34;67.08;101086.24;106960;1268;22647;-55
2023/04/15 02:21:46;;;;;;;13.30;6.70;;;;;;;14.34;67.00;101085.89;106982;1271;25342;-55
2023/04/15 02:24:17;;;;;;;10.40;7.10;;;;;;;14.33;66.91;101086.96;106797;1269;22653;-54
2023/04/15 02:26:46;;;;;;;9.90;6.60;;;;;;;14.32;66.89;101093.79;106764;1269;22652;-55
2023/04/15 02:29:17;;;;;;;9.00;6.60;;;;;;;14.31;66.75;101105.88;106941;1269;25364;-55
2023/04/15 02:31:46;;;;;;;9.30;6.80;;;;;;;14.29;66.66;101105.77;106947;1268;25334;-55
2023/04/15 02:37:42;;;;;;;8.50;6.60;;;;;;;14.32;66.53;101099.05;103918;1301;545063;-54
2023/04/15 02:40:11;;;;;;;9.60;6.50;;;;;;;14.29;66.41;101098.44;105828;1286;24545;-54
2023/04/15 02:42:43;;;;;;;8.40;5.80;;;;;;;14.29;66.27;101097.57;105912;1284;25375;-56
2023/04/15 02:45:14;;;;;;;9.40;5.80;;;;;;;14.29;66.18;101102.28;105904;1284;25445;-56
2023/04/15 02:47:46;;;;;;;9.40;6.40;;;;;;;14.29;65.94;101116.25;105840;1288;22533;-56
2023/04/15 02:50:15;;;;;;;12.40;6.50;;;;;;;14.28;65.88;101120.98;105754;1287;233304;-55
2023/04/15 02:52:43;;;;;;;10.00;6.60;;;;;;;14.28;65.75;101123.77;106231;1286;25507;-55
2023/04/15 02:55:16;;;;;;;6.80;5.80;;;;;;;14.28;65.74;101123.23;105957;1285;25498;-55
2023/04/15 02:57:46;;;;;;;8.20;6.50;;;;;;;14.29;65.69;101123.92;106200;1287;22654;-55
2023/04/15 03:00:15;;;;;;;9.30;5.60;;;;;;;14.29;65.58;101123.74;106239;1283;26120;-55
2023/04/15 03:02:45;;;;;;;7.80;6.20;;;;;;;14.29;65.46;101124.79;106279;1282;25453;-55
2023/04/15 03:05:14;;;;;;;13.00;6.40;;;;;;;14.28;65.35;101122.55;106258;1279;22636;-55
2023/04/15 03:07:53;;;;;;;10.80;6.70;;;;;;;14.28;65.35;101119.05;106277;1283;22563;-55
2023/04/15 03:10:21;;;;;;;11.40;6.40;;;;;;;14.27;65.20;101119.06;106141;1284;22607;-55
2023/04/15 03:12:50;;;;;;;9.80;6.80;;;;;;;14.25;65.27;101121.73;105902;1283;24278;-55
2023/04/15 03:15:25;;;;;;;9.20;6.00;;;;;;;14.26;65.20;101120.86;106060;1281;23909;-55
2023/04/15 03:17:57;;;;;;;9.10;6.10;;;;;;;14.26;65.18;101119.27;105973;1285;25416;-55
2023/04/15 03:20:26;;;;;;;13.70;6.20;;;;;;;14.26;65.15;101122.94;105966;1280;24423;-55
2023/04/15 03:22:57;;;;;;;11.80;6.00;;;;;;;14.27;65.08;101122.04;106188;1280;25345;-55
2023/04/15 03:25:26;;;;;;;8.50;5.40;;;;;;;14.27;65.06;101119.77;105836;1287;25337;-55
2023/04/15 03:27:56;;;;;;;9.30;5.70;;;;;;;14.26;65.12;101123.27;105966;1285;25341;-55
2023/04/15 03:30:38;;;;;;;8.70;5.80;;;;;;;14.26;65.14;101124.31;105823;1288;25366;-55
2023/04/15 03:33:10;;;;;;;11.10;5.90;;;;;;;14.28;65.08;101132.67;106667;1273;25427;-55
2023/04/15 03:35:39;;;;;;;12.70;6.30;;;;;;;14.29;65.20;101135.80;106745;1273;24272;-55
2023/04/15 03:38:12;;;;;;;10.00;5.70;;;;;;;14.30;65.11;101141.33;106638;1273;25353;-55
2023/04/15 03:40:42;;;;;;;10.50;5.80;;;;;;;14.30;65.05;101147.95;106445;1272;22552;-56
2023/04/15 03:43:11;;;;;;;10.00;5.60;;;;;;;14.30;65.14;101148.14;106412;1274;24311;-56
2023/04/15 03:45:39;;;;;;;9.60;4.80;;;;;;;14.31;65.15;101146.71;106717;1270;22641;-55
2023/04/15 03:48:07;;;;;;;11.10;5.60;;;;;;;14.34;65.03;101143.64;106806;1270;25440;-55
2023/04/15 03:50:49;;;;;;;13.30;5.90;;;;;;;14.37;64.98;101140.77;106783;1275;25324;-55
2023/04/15 03:53:20;;;;;;;13.20;5.90;;;;;;;14.38;64.98;101148.09;106031;1270;1004256;-55
2023/04/15 03:55:48;;;;;;;8.20;5.40;;;;;;;14.40;64.85;101158.48;106726;1270;25347;-55
2023/04/15 03:58:17;;;;;;;6.80;5.00;;;;;;;14.42;64.86;101155.61;106739;1268;22530;-56
2023/04/15 04:00:46;;;;;;;8.20;4.70;;;;;;;14.44;64.75;101154.87;106983;1273;25352;-55
2023/04/15 04:03:16;;;;;;;11.70;5.20;;;;;;;14.45;64.72;101154.85;106939;1273;25370;-55
2023/04/15 04:05:46;;;;;;;10.90;5.00;;;;;;;14.47;64.58;101153.02;106907;1270;25321;-55
2023/04/15 04:08:18;;;;;;;9.20;6.00;;;;;;;14.46;64.57;101145.21;106954;1268;25408;-55
2023/04/15 04:10:46;;;;;;;7.70;5.00;;;;;;;14.46;64.53;101137.00;106866;1270;24364;-55
2023/04/15 04:13:21;;;;;;;8.70;5.20;;;;;;;14.47;64.51;101130.67;106960;1273;25282;-55
2023/04/15 04:16:03;;;;;;;8.80;5.20;;;;;;;14.46;64.43;101125.81;106935;1269;25509;-54
2023/04/15 04:18:32;;;;;;;8.00;5.00;;;;;;;14.45;64.42;101119.94;106925;1260;22625;-55
2023/04/15 04:21:00;;;;;;;14.80;5.80;;;;;;;14.44;64.42;101113.67;106921;1268;25370;-55
2023/04/15 04:23:32;;;;;;;10.80;5.80;;;;;;;14.42;64.57;101121.95;106872;1268;25351;-53
2023/04/15 04:26:00;;;;;;;10.90;6.10;;;;;;;14.39;64.67;101124.66;106837;1275;25410;-55
2023/04/15 04:28:29;;;;;;;9.70;6.60;;;;;;;14.36;64.80;101133.11;106975;1269;22643;-54
2023/04/15 04:30:57;;;;;;;9.30;5.90;;;;;;;14.34;64.84;101138.95;107002;1270;25473;-55
2023/04/15 04:33:27;;;;;;;10.80;6.30;;;;;;;14.33;64.95;101144.91;106801;1271;25357;-55
2023/04/15 04:35:55;;;;;;;11.80;6.70;;;;;;;14.32;65.05;101145.63;106868;1268;25532;-55
2023/04/15 04:38:24;;;;;;;10.30;6.50;;;;;;;14.32;65.18;101145.81;106929;1268;25334;-55
2023/04/15 04:40:53;;;;;;;13.50;6.90;;;;;;;14.33;65.26;101151.90;106889;1273;23163;-55
2023/04/15 04:43:21;;;;;;;7.90;6.40;;;;;;;14.33;65.23;101152.04;106708;1274;25415;-55
2023/04/15 04:45:50;;;;;;;13.90;6.90;;;;;;;14.36;65.25;101153.20;107073;1270;25370;-55
2023/04/15 04:48:20;;;;;;;11.70;7.20;;;;;;;14.38;65.23;101155.23;106893;1267;23123;-53
2023/04/15 04:50:48;;;;;;;11.70;6.60;;;;;;;14.41;65.24;101152.02;106700;1270;22649;-53
2023/04/15 04:53:17;;;;;;;11.30;6.40;;;;;;;14.43;65.14;101154.89;107036;1269;25294;-54
2023/04/15 04:55:46;;;;;;;11.50;6.90;;;;;;;14.46;65.10;101153.40;106865;1270;25335;-55
2023/04/15 04:58:15;;;;;;;13.10;7.70;;;;;;;14.50;65.08;101152.58;106847;1273;25440;-54
2023/04/15 05:00:43;;;;;;;10.70;7.40;;;;;;;14.53;64.94;101155.80;106980;1268;22618;-55
2023/04/15 05:03:12;;;;;;;10.50;6.70;;;;;;;14.56;64.85;101157.45;106785;1270;26665;-55
2023/04/15 05:05:41;;;;;;;9.20;6.70;;;;;;;14.60;64.81;101166.23;106957;1269;25402;-55
2023/04/15 05:08:11;;;;;;;16.00;8.10;;;;;;;14.63;64.66;101162.98;106856;1270;25357;-53
2023/04/15 05:10:40;;;;;;;11.30;7.00;;;;;;;14.66;64.50;101162.02;106863;1269;25343;-55
2023/04/15 05:13:08;;;;;;;13.60;7.20;;;;;;;14.67;64.50;101163.02;107008;1261;25458;-55
2023/04/15 05:15:42;;;;;;;10.00;7.10;;;;;;;14.70;64.41;101160.33;106897;1270;25331;-55
2023/04/15 05:18:11;;;;;;;9.50;6.10;;;;;;;14.72;64.43;101159.22;106990;1268;25417;-55
2023/04/15 05:20:40;;;;;;;9.10;7.10;;;;;;;14.74;64.32;101158.45;106887;1275;25359;-55
2023/04/15 05:23:08;;;;;;;12.00;7.60;;;;;;;14.76;64.36;101161.36;107026;1268;24238;-55
2023/04/15 05:25:37;;;;;;;11.60;8.00;;;;;;;14.79;64.23;101153.91;106958;1268;25530;-55
2023/04/15 05:28:05;;;;;;;13.20;7.70;;;;;;;14.81;64.17;101152.98;106974;1268;25363;-55
2023/04/15 05:30:34;;;;;;;11.30;7.20;;;;;;;14.81;64.20;101162.23;106916;1268;25350;-55
2023/04/15 05:33:08;;;;;;;8.50;6.90;;;;;;;14.83;64.16;101160.80;106798;1269;25397;-54
2023/04/15 05:35:36;;;;;;;13.00;7.30;;;;;;;14.86;64.11;101159.96;106651;1269;22682;-54
2023/04/15 05:38:05;;;;;;;8.90;6.90;;;;;;;14.89;64.10;101161.27;106503;1273;25416;-54
2023/04/15 05:40:33;;;;;;;12.60;7.00;;;;;;;14.92;64.05;101160.80;106608;1273;25367;-54
2023/04/15 05:43:07;;;;;;;9.70;6.50;;;;;;;14.98;64.05;101165.17;106629;1271;25344;-54
2023/04/15 05:45:41;;;;;;;11.40;7.20;;;;;;;15.05;63.84;101161.06;106614;1270;25368;-55
2023/04/15 05:48:10;;;;;;;10.10;6.60;;;;;;;15.15;63.69;101158.99;106776;1270;25362;-55
2023/04/15 05:50:40;;;;;;;10.70;6.60;;;;;;;15.26;63.53;101162.64;106922;1273;22527;-54
2023/04/15 05:53:13;;;;;;;18.70;7.10;;;;;;;15.41;63.22;101162.27;106859;1270;22666;-55
2023/04/15 05:55:42;;;;;;;11.90;6.80;;;;;;;15.58;62.85;101161.70;104714;1268;1004720;-54
2023/04/15 05:58:11;;;;;;;7.70;6.20;;;;;;;15.75;62.45;101161.94;106869;1269;22705;-54
2023/04/15 06:00:39;;;;;;;10.70;6.10;;;;;;;15.99;61.97;101164.54;106952;1270;24291;-54
2023/04/15 06:03:08;;;;;;;9.60;6.70;;;;;;;16.26;61.32;101166.31;106971;1275;25451;-54
2023/04/15 06:05:37;;;;;;;10.90;5.40;;;;;;;16.55;60.48;101165.21;106845;1269;25346;-54
2023/04/15 06:08:05;;;;;;;10.40;7.50;;;;;;;16.79;59.67;101163.69;106942;1268;25328;-54
2023/04/15 06:10:35;;;;;;;7.30;5.80;;;;;;;17.00;59.01;101167.04;106929;1268;22530;-54
2023/04/15 06:13:05;;;;;;;15.30;6.40;;;;;;;17.19;58.49;101168.14;106918;1269;25363;-54
2023/04/15 06:15:34;;;;;;;8.30;6.00;;;;;;;17.41;57.80;101167.38;106892;1270;25305;-54
2023/04/15 06:18:03;;;;;;;8.20;6.10;;;;;;;17.63;57.15;101163.93;106638;1271;22623;-54
2023/04/15 06:20:33;;;;;;;11.60;5.90;;;;;;;17.85;56.57;101168.92;106607;1269;25380;-54
2023/04/15 06:23:02;;;;;;;10.80;6.10;;;;;;;18.04;55.86;101172.96;106718;1268;25331;-54
2023/04/15 06:25:30;;;;;;;10.10;5.60;;;;;;;18.18;55.25;101180.23;106669;1269;25342;-54
2023/04/15 06:27:59;;;;;;;7.80;5.30;;;;;;;18.22;54.83;101191.95;106480;1269;24186;-54
2023/04/15 06:30:28;;;;;;;9.70;6.10;;;;;;;18.23;54.53;101193.15;106780;1269;22518;-55
2023/04/15 06:32:57;;;;;;;15.10;6.20;;;;;;;18.23;54.30;101195.45;106868;1268;25360;-53
2023/04/15 06:35:27;;;;;;;8.20;5.60;;;;;;;18.23;54.22;101199.67;106852;1269;25356;-53
2023/04/15 06:37:55;;;;;;;8.60;5.00;;;;;;;18.23;54.19;101198.59;106753;1269;25354;-52
2023/04/15 06:40:24;;;;;;;13.80;5.70;;;;;;;18.26;54.01;101204.10;106981;1268;25389;-52
2023/04/15 06:42:52;;;;;;;10.60;5.10;;;;;;;18.27;54.00;101196.69;106969;1268;25322;-52
2023/04/15 06:45:22;;;;;;;12.50;6.80;;;;;;;18.27;53.94;101192.79;106932;1268;24322;-52
2023/04/15 06:47:53;;;;;;;11.40;6.00;;;;;;;18.34;53.81;101195.12;106943;1268;25334;-52
2023/04/15 06:50:22;;;;;;;10.80;5.50;;;;;;;18.42;53.68;101194.36;106787;1269;25397;-52
2023/04/15 06:52:56;;;;;;;9.50;5.40;;;;;;;18.49;53.16;101197.56;106886;1268;25341;-53
2023/04/15 06:55:24;;;;;;;11.30;5.50;;;;;;;18.52;53.15;101202.89;106773;1269;25359;-52
2023/04/15 06:57:53;;;;;;;8.80;5.80;;;;;;;18.47;53.09;101204.36;106994;1268;24584;-53
2023/04/15 07:00:24;;;;;;;7.10;4.80;;;;;;;18.44;53.09;101206.77;106923;1275;24215;-52
2023/04/15 07:02:54;;;;;;;8.90;5.40;;;;;;;18.38;53.25;101208.08;106843;1269;24196;-52
2023/04/15 07:05:24;;;;;;;9.50;5.50;;;;;;;18.36;53.30;101207.48;106836;1268;25342;-52
2023/04/15 07:07:52;;;;;;;8.50;5.20;;;;;;;18.31;53.34;101213.33;106970;1268;22542;-52
2023/04/15 07:10:21;;;;;;;9.70;5.10;;;;;;;18.26;53.64;101218.14;106765;1269;25361;-52
2023/04/15 07:12:52;;;;;;;9.30;5.40;;;;;;;18.26;53.40;101210.42;107038;1269;22529;-52
2023/04/15 07:15:21;;;;;;;10.00;5.30;;;;;;;18.26;53.68;101209.35;106720;1269;25422;-53
2023/04/15 07:17:53;;;;;;;10.80;5.20;;;;;;;18.28;53.41;101203.27;106915;1268;25546;-52
2023/04/15 07:20:23;;;;;;;9.70;5.30;;;;;;;18.33;53.28;101209.75;106788;1272;25291;-52
2023/04/15 07:22:52;;;;;;;9.50;5.00;;;;;;;18.36;53.40;101207.63;106988;1268;25320;-52
2023/04/15 07:25:24;;;;;;;10.30;4.90;;;;;;;18.43;53.24;101206.80;107049;1269;22554;-52
2023/04/15 07:27:55;;;;;;;7.60;4.80;;;;;;;18.50;52.91;101203.48;106975;1269;22690;-52
2023/04/15 07:30:23;;;;;;;10.30;5.40;;;;;;;18.55;52.71;101210.10;107017;1268;24380;-52
2023/04/15 07:32:53;;;;;;;10.30;5.10;;;;;;;18.56;52.73;101208.14;106929;1268;25376;-52
2023/04/15 07:38:40;;;;;;;10.20;5.20;;;;;;;18.40;52.93;101229.80;104016;1298;544851;-52
2023/04/15 07:41:11;;;;;;;11.50;5.20;;;;;;;18.24;53.30;101240.20;106236;1267;25441;-53
2023/04/15 07:43:40;;;;;;;10.10;5.40;;;;;;;18.07;53.99;101246.75;106161;1280;25384;-53
2023/04/15 07:46:09;;;;;;;11.70;5.30;;;;;;;17.97;54.33;101246.68;106209;1281;23736;-53
2023/04/15 07:48:37;;;;;;;11.00;4.80;;;;;;;17.88;54.73;101244.27;105996;1269;25435;-53
2023/04/15 07:51:07;;;;;;;10.90;5.40;;;;;;;17.81;54.92;101244.40;106014;1281;25362;-53
2023/04/15 07:53:37;;;;;;;12.50;5.10;;;;;;;17.75;54.92;101253.42;105777;1279;25540;-53
2023/04/15 07:56:06;;;;;;;9.90;5.00;;;;;;;17.66;55.14;101249.59;106262;1279;24241;-55
2023/04/15 07:58:37;;;;;;;13.70;5.90;;;;;;;17.59;55.26;101249.91;106234;1284;22562;-54
2023/04/15 08:01:07;;;;;;;9.00;4.60;;;;;;;17.37;56.11;101250.13;106283;1282;26157;-54
2023/04/15 08:03:36;;;;;;;12.80;5.40;;;;;;;17.41;56.08;101254.88;106128;1281;24212;-53
2023/04/15 08:06:09;;;;;;;9.20;4.70;;;;;;;17.41;56.11;101258.04;105950;1287;25464;-54
2023/04/15 08:08:38;;;;;;;9.30;4.90;;;;;;;17.39;56.24;101259.87;106547;1276;23906;-54
2023/04/15 08:11:06;;;;;;;10.90;5.10;;;;;;;17.39;56.32;101260.59;106266;1273;25352;-54
2023/04/15 08:13:36;;;;;;;11.50;5.20;;;;;;;17.40;56.35;101268.25;106554;1275;25379;-53
2023/04/15 08:16:18;;;;;;;11.50;5.30;;;;;;;17.41;56.40;101271.20;106567;1269;22611;-53
2023/04/15 08:18:47;;;;;;;12.60;5.50;;;;;;;17.41;56.42;101268.58;106436;1276;22541;-53
2023/04/15 08:21:18;;;;;;;10.20;5.30;;;;;;;17.40;56.36;101267.01;106476;1278;25415;-54
2023/04/15 08:23:50;;;;;;;9.50;5.00;;;;;;;17.39;56.46;101266.20;107147;1275;23195;-54
2023/04/15 08:26:25;;;;;;;8.90;5.60;;;;;;;17.39;56.53;101267.44;106458;1275;25565;-54
2023/04/15 08:28:55;;;;;;;9.10;4.70;;;;;;;17.39;56.71;101263.21;106359;1275;25353;-54
2023/04/15 08:31:25;;;;;;;7.20;4.80;;;;;;;17.41;56.76;101264.88;106413;1283;22532;-53
2023/04/15 08:33:58;;;;;;;7.90;4.30;;;;;;;17.41;56.68;101271.70;106116;1283;25516;-53
2023/04/15 08:36:32;;;;;;;14.30;5.30;;;;;;;17.41;56.77;101271.71;106420;1275;25349;-54
2023/04/15 08:39:03;;;;;;;8.40;4.80;;;;;;;17.43;56.87;101269.52;106477;1277;24282;-53
2023/04/15 08:42:02;;;;;;;9.70;4.60;;;;;;;17.44;56.81;101272.09;106438;1278;25331;-54
2023/04/15 08:44:35;;;;;;;11.00;4.80;;;;;;;17.45;56.98;101269.10;106782;1278;25380;-54
2023/04/15 08:47:07;;;;;;;9.90;4.70;;;;;;;17.47;57.12;101264.79;106572;1272;25423;-54
2023/04/15 08:49:38;;;;;;;7.90;4.30;;;;;;;17.51;56.98;101270.46;106393;1281;24489;-54
2023/04/15 08:52:11;;;;;;;16.80;5.90;;;;;;;17.57;56.88;101271.77;106226;1269;25538;-54
2023/04/15 08:54:41;;;;;;;13.10;4.80;;;;;;;17.61;56.88;101270.52;106507;1278;25354;-53
2023/04/15 08:57:10;;;;;;;11.10;5.20;;;;;;;17.65;56.63;101276.33;106356;1268;25352;-53
2023/04/15 08:59:39;;;;;;;8.90;4.60;;;;;;;17.67;56.58;101277.45;106357;1278;25428;-54
2023/04/15 09:02:08;;;;;;;11.60;5.10;;;;;;;17.70;56.59;101282.42;106591;1273;24325;-54
2023/04/15 09:04:37;;;;;;;6.90;5.00;;;;;;;17.72;56.72;101280.77;106179;1269;25345;-54
2023/04/15 09:07:06;;;;;;;9.00;4.60;;;;;;;17.73;56.64;101280.70;106449;1275;25488;-54
2023/04/15 09:09:36;;;;;;;8.40;4.90;;;;;;;17.77;56.82;101278.77;106381;1280;25376;-54
2023/04/15 09:12:05;;;;;;;8.70;4.50;;;;;;;17.82;56.65;101274.34;106272;1269;22559;-54
2023/04/15 09:14:33;;;;;;;11.40;5.80;;;;;;;17.86;56.39;101273.27;106648;1268;22609;-54
2023/04/15 09:17:03;;;;;;;10.60;5.30;;;;;;;17.90;56.48;101274.02;106622;1275;22624;-54
2023/04/15 09:19:35;;;;;;;10.50;5.00;;;;;;;17.94;56.40;101274.06;106608;1281;22571;-54
2023/04/15 09:22:04;;;;;;;9.80;5.00;;;;;;;17.97;56.14;101270.56;106405;1259;24232;-54
2023/04/15 09:24:36;;;;;;;10.90;4.40;;;;;;;18.01;55.82;101267.91;106393;1275;25369;-54
2023/04/15 09:27:05;;;;;;;8.10;4.50;;;;;;;18.03;55.74;101263.80;106719;1275;24281;-54
2023/04/15 09:29:33;;;;;;;8.30;5.00;;;;;;;18.04;55.75;101265.86;106202;1281;24334;-54
2023/04/15 09:32:12;;;;;;;10.00;5.10;;;;;;;18.05;55.53;101267.23;106108;1283;24236;-54
2023/04/15 09:34:41;;;;;;;11.50;4.70;;;;;;;18.06;55.57;101269.27;106349;1275;22653;-54
2023/04/15 09:37:12;;;;;;;10.30;4.90;;;;;;;18.08;55.52;101271.98;106203;1276;25590;-54
2023/04/15 09:39:58;;;;;;;7.10;5.10;;;;;;;18.12;55.53;101279.89;106104;1281;24732;-54
2023/04/15 09:42:27;;;;;;;8.60;4.90;;;;;;;18.17;55.57;101285.61;106588;1275;25454;-54
2023/04/15 09:44:56;;;;;;;7.90;4.80;;;;;;;18.22;55.39;101285.40;106747;1259;25370;-54
2023/04/15 09:47:30;;;;;;;8.60;5.10;;;;;;;18.26;55.21;101290.13;106289;1283;22543;-54
2023/04/15 09:50:00;;;;;;;8.50;4.90;;;;;;;18.29;55.04;101290.20;106565;1269;23437;-54
2023/04/15 09:52:29;;;;;;;12.50;4.70;;;;;;;18.28;54.82;101288.30;106427;1272;22549;-53
2023/04/15 09:54:58;;;;;;;8.30;4.50;;;;;;;18.29;54.70;101283.31;106335;1281;25424;-53
2023/04/15 09:57:35;;;;;;;6.70;4.60;;;;;;;18.29;54.55;101280.52;106410;1281;23148;-53
2023/04/15 10:00:05;;;;;;;8.10;4.80;;;;;;;18.26;54.67;101278.88;107195;1262;25297;-54
2023/04/15 10:02:34;;;;;;;11.30;4.70;;;;;;;18.21;54.64;101279.27;107182;1269;22528;-54
2023/04/15 10:05:04;;;;;;;9.50;4.00;;;;;;;18.16;55.08;101282.17;104995;1268;1002951;-54
2023/04/15 10:07:34;;;;;;;7.80;3.90;;;;;;;18.15;55.03;101287.33;106994;1271;22520;-53
2023/04/15 10:10:04;;;;;;;10.70;4.70;;;;;;;18.17;55.32;101292.13;106972;1275;25290;-54
2023/04/15 10:12:36;;;;;;;8.90;4.60;;;;;;;18.23;55.45;101290.11;107410;1262;25338;-54
2023/04/15 10:15:05;;;;;;;8.60;4.20;;;;;;;18.28;55.66;101286.68;106739;1275;22557;-54
2023/04/15 10:17:35;;;;;;;7.80;4.40;;;;;;;18.35;55.24;101284.30;106867;1265;23234;-54
2023/04/15 10:20:06;;;;;;;8.00;4.40;;;;;;;18.39;54.73;101283.05;106896;1272;25291;-54
2023/04/15 10:22:35;;;;;;;5.20;3.50;;;;;;;18.42;54.50;101286.75;106902;1271;25325;-54
2023/04/15 10:25:04;;;;;;;9.90;4.00;;;;;;;18.42;54.39;101284.67;107167;1268;26504;-54
2023/04/15 10:27:33;;;;;;;8.90;4.60;;;;;;;18.40;54.39;101287.05;106198;1253;1003912;-54
2023/04/15 10:30:02;;;;;;;7.30;3.60;;;;;;;18.38;54.34;101285.54;107243;1269;24229;-54
2023/04/15 10:32:31;;;;;;;6.40;4.30;;;;;;;18.36;54.19;101285.79;107178;1269;25239;-54
2023/04/15 10:34:59;;;;;;;11.60;4.20;;;;;;;18.35;54.19;101290.42;106875;1267;25274;-54
2023/04/15 10:37:36;;;;;;;8.40;3.90;;;;;;;18.33;54.26;101290.34;107368;1269;22527;-54
2023/04/15 10:40:22;;;;;;;6.90;3.90;;;;;;;18.34;54.41;101290.10;107068;1266;22647;-54
2023/04/15 10:42:51;;;;;;;7.30;4.10;;;;;;;18.35;54.41;101287.96;107176;1256;22629;-54
2023/04/15 10:45:19;;;;;;;7.40;4.20;;;;;;;18.35;54.47;101289.71;107053;1253;24217;-54
2023/04/15 10:47:53;;;;;;;7.00;3.80;;;;;;;18.37;54.63;101291.55;107020;1269;22552;-54
2023/04/15 10:50:28;;;;;;;8.30;4.10;;;;;;;18.42;54.53;101292.58;107033;1275;22539;-54
2023/04/15 10:52:57;;;;;;;10.70;4.20;;;;;;;18.48;54.32;101290.75;106875;1273;22516;-54
2023/04/15 10:55:26;;;;;;;6.80;3.80;;;;;;;18.54;54.10;101292.73;107132;1267;22530;-54
2023/04/15 10:57:59;;;;;;;4.90;3.30;;;;;;;18.61;53.96;101299.27;107079;1270;23862;-54
2023/04/15 11:00:29;;;;;;;8.40;3.80;;;;;;;18.68;53.79;101296.46;106982;1269;22761;-54
2023/04/15 11:03:06;;;;;;;10.10;3.80;;;;;;;18.74;53.47;101296.88;107065;1268;22557;-54
2023/04/15 11:05:41;;;;;;;7.00;3.80;;;;;;;18.77;53.11;101292.91;107012;1262;22572;-54
2023/04/15 11:08:10;;;;;;;8.90;3.40;;;;;;;18.73;53.00;101290.26;106997;1269;23146;-54
2023/04/15 11:10:39;;;;;;;9.00;4.70;;;;;;;18.68;53.08;101286.29;106784;1267;25457;-53
2023/04/15 11:13:08;;;;;;;6.90;3.80;;;;;;;18.65;53.19;101280.60;106964;1269;25281;-54
2023/04/15 11:15:40;;;;;;;7.80;4.00;;;;;;;18.64;53.06;101284.52;106749;1273;25308;-54
2023/04/15 11:18:13;;;;;;;9.20;3.70;;;;;;;18.63;53.12;101281.91;106676;1269;22536;-54
2023/04/15 11:20:49;;;;;;;6.30;3.70;;;;;;;18.60;53.19;101277.19;106859;1269;22643;-54
2023/04/15 11:23:18;;;;;;;7.50;3.90;;;;;;;18.51;53.59;101270.92;106822;1267;25408;-54
2023/04/15 11:25:47;;;;;;;8.00;4.10;;;;;;;18.49;53.79;101269.06;106747;1269;22636;-54
2023/04/15 11:28:17;;;;;;;5.40;3.50;;;;;;;18.50;53.65;101270.41;106833;1269;25373;-54
2023/04/15 11:30:47;;;;;;;6.80;3.40;;;;;;;18.52;53.55;101271.57;106479;1268;22526;-54
2023/04/15 11:33:15;;;;;;;8.50;4.90;;;;;;;18.51;53.41;101275.86;106827;1272;24349;-54
2023/04/15 11:35:44;;;;;;;7.30;4.10;;;;;;;18.48;53.51;101277.92;106803;1272;25324;-53